VLG438P GCXO-LEZL
Flight info
| Callsign | VLG438P |
|---|---|
| Flight time | 1h 50m |
| Altitude | 36000 |
| Route | VASTO/N0440F380 UN858 AKUDA DCT PESAS N858 OSLEP |
| Aircraft | A320/M-SDE3FGHIRWY/LB1 |
Departure
| Time | 2026-04-28 03:13 |
|---|---|
| Airport | Tenerife Norte-Ciudad de La Laguna Airport (GCXO) |
Arrival
| Time | 2026-04-28 05:03 |
|---|---|
| Airport | Seville Airport (LEZL) |
| Time | Latitude | Longitude | Altitude | Speed | Heading |
|---|---|---|---|---|---|
| 2026-04-28 02:35 | 28.48601 | -16.34396 | 2059 ft | 0 kts | 21° |
| 2026-04-28 02:58 | 28.48587 | -16.34402 | 2059 ft | 3 kts | 21° |
| 2026-04-28 02:58 | 28.48566 | -16.34411 | 2059 ft | 3 kts | 21° |
| 2026-04-28 02:58 | 28.48547 | -16.34419 | 2059 ft | 2 kts | 20° |
| 2026-04-28 02:59 | 28.48530 | -16.34430 | 2060 ft | 3 kts | 63° |
| 2026-04-28 02:59 | 28.48527 | -16.34452 | 2061 ft | 3 kts | 104° |
| 2026-04-28 02:59 | 28.48531 | -16.34468 | 2062 ft | 1 kts | 111° |
| 2026-04-28 03:02 | 28.48530 | -16.34464 | 2062 ft | 2 kts | 111° |
| 2026-04-28 03:02 | 28.48505 | -16.34445 | 2060 ft | 7 kts | 152° |
| 2026-04-28 03:02 | 28.48464 | -16.34401 | 2059 ft | 10 kts | 116° |
| 2026-04-28 03:02 | 28.48433 | -16.34308 | 2055 ft | 15 kts | 110° |
| 2026-04-28 03:03 | 28.48389 | -16.34180 | 2050 ft | 20 kts | 112° |
| 2026-04-28 03:03 | 28.48337 | -16.34020 | 2045 ft | 20 kts | 110° |
| 2026-04-28 03:03 | 28.48295 | -16.33891 | 2041 ft | 19 kts | 110° |
| 2026-04-28 03:03 | 28.48246 | -16.33743 | 2044 ft | 21 kts | 110° |
| 2026-04-28 03:04 | 28.48190 | -16.33578 | 2035 ft | 24 kts | 110° |
| 2026-04-28 03:04 | 28.48135 | -16.33408 | 2033 ft | 15 kts | 110° |
| 2026-04-28 03:04 | 28.48094 | -16.33286 | 2033 ft | 18 kts | 111° |
| 2026-04-28 03:04 | 28.48051 | -16.33159 | 2032 ft | 19 kts | 111° |
| 2026-04-28 03:05 | 28.48019 | -16.33062 | 2024 ft | 10 kts | 110° |
| 2026-04-28 03:05 | 28.47998 | -16.32998 | 2018 ft | 10 kts | 110° |
| 2026-04-28 03:05 | 28.47971 | -16.32915 | 2016 ft | 12 kts | 110° |
| 2026-04-28 03:05 | 28.47941 | -16.32827 | 2014 ft | 12 kts | 111° |
| 2026-04-28 03:06 | 28.47915 | -16.32745 | 2013 ft | 12 kts | 110° |
| 2026-04-28 03:06 | 28.47899 | -16.32700 | 2014 ft | 4 kts | 111° |
| 2026-04-28 03:06 | 28.47899 | -16.32698 | 2013 ft | 0 kts | 111° |
| 2026-04-28 03:11 | 28.47896 | -16.32690 | 2014 ft | 3 kts | 111° |
| 2026-04-28 03:11 | 28.47884 | -16.32656 | 2012 ft | 7 kts | 111° |
| 2026-04-28 03:11 | 28.47856 | -16.32591 | 2009 ft | 11 kts | 128° |
| 2026-04-28 03:11 | 28.47796 | -16.32538 | 2013 ft | 11 kts | 156° |
| 2026-04-28 03:12 | 28.47748 | -16.32577 | 2015 ft | 10 kts | 273° |
| 2026-04-28 03:12 | 28.47815 | -16.32793 | 2018 ft | 61 kts | 291° |
| 2026-04-28 03:12 | 28.48043 | -16.33474 | 2038 ft | 120 kts | 290° |
| 2026-04-28 03:12 | 28.48392 | -16.34523 | 2192 ft | 154 kts | 291° |
| 2026-04-28 03:13 | 28.48782 | -16.35659 | 2904 ft | 155 kts | 294° |
| 2026-04-28 03:13 | 28.49189 | -16.36818 | 3569 ft | 161 kts | 293° |
| 2026-04-28 03:13 | 28.49635 | -16.38057 | 3976 ft | 179 kts | 295° |
| 2026-04-28 03:13 | 28.50134 | -16.39402 | 4327 ft | 196 kts | 295° |
| 2026-04-28 03:14 | 28.50685 | -16.40921 | 4587 ft | 221 kts | 294° |
| 2026-04-28 03:14 | 28.51287 | -16.42648 | 4910 ft | 247 kts | 295° |
| 2026-04-28 03:14 | 28.51943 | -16.44553 | 5436 ft | 265 kts | 293° |
| 2026-04-28 03:14 | 28.52617 | -16.46541 | 6209 ft | 273 kts | 293° |
| 2026-04-28 03:15 | 28.53306 | -16.48571 | 7029 ft | 277 kts | 293° |
| 2026-04-28 03:15 | 28.54008 | -16.50630 | 7868 ft | 280 kts | 294° |
| 2026-04-28 03:15 | 28.54981 | -16.52536 | 8725 ft | 280 kts | 312° |
| 2026-04-28 03:15 | 28.56493 | -16.53926 | 9586 ft | 281 kts | 332° |
| 2026-04-28 03:16 | 28.58364 | -16.54605 | 10338 ft | 287 kts | 353° |
| 2026-04-28 03:16 | 28.60363 | -16.54447 | 11022 ft | 296 kts | 13° |
| 2026-04-28 03:16 | 28.62279 | -16.53383 | 11243 ft | 323 kts | 38° |
| 2026-04-28 03:16 | 28.63640 | -16.51322 | 11670 ft | 340 kts | 65° |
| 2026-04-28 03:17 | 28.64252 | -16.48693 | 12305 ft | 347 kts | 79° |
| 2026-04-28 03:17 | 28.65975 | -16.43602 | 13619 ft | 350 kts | 49° |
| 2026-04-28 03:17 | 28.67526 | -16.41448 | 14245 ft | 353 kts | 48° |
| 2026-04-28 03:18 | 28.69101 | -16.39287 | 14842 ft | 357 kts | 48° |
| 2026-04-28 03:18 | 28.70699 | -16.37104 | 15427 ft | 360 kts | 48° |
| 2026-04-28 03:18 | 28.72314 | -16.34901 | 15997 ft | 364 kts | 48° |
| 2026-04-28 03:18 | 28.73921 | -16.32656 | 16595 ft | 367 kts | 49° |
| 2026-04-28 03:19 | 28.74965 | -16.31132 | 16987 ft | 369 kts | 50° |
| 2026-04-28 03:19 | 28.76527 | -16.28781 | 17571 ft | 373 kts | 51° |
| 2026-04-28 03:19 | 28.78084 | -16.26395 | 18144 ft | 377 kts | 51° |
| 2026-04-28 03:19 | 28.79654 | -16.23983 | 18687 ft | 381 kts | 51° |
| 2026-04-28 03:20 | 28.81244 | -16.21551 | 19180 ft | 384 kts | 51° |
| 2026-04-28 03:20 | 28.82856 | -16.19100 | 19700 ft | 387 kts | 51° |
| 2026-04-28 03:20 | 28.84487 | -16.16636 | 20227 ft | 391 kts | 50° |
| 2026-04-28 03:20 | 28.86115 | -16.14189 | 20747 ft | 393 kts | 50° |
| 2026-04-28 03:21 | 28.87780 | -16.11690 | 21247 ft | 396 kts | 50° |
| 2026-04-28 03:21 | 28.89451 | -16.09171 | 21732 ft | 400 kts | 50° |
| 2026-04-28 03:21 | 28.91132 | -16.06628 | 22191 ft | 403 kts | 50° |
| 2026-04-28 03:21 | 28.92825 | -16.04062 | 22648 ft | 406 kts | 50° |
| 2026-04-28 03:22 | 28.94533 | -16.01470 | 23111 ft | 410 kts | 50° |
| 2026-04-28 03:22 | 28.96253 | -15.98857 | 23591 ft | 413 kts | 50° |
| 2026-04-28 03:22 | 28.97987 | -15.96220 | 23977 ft | 416 kts | 50° |
| 2026-04-28 03:22 | 28.99738 | -15.93564 | 24353 ft | 419 kts | 49° |
| 2026-04-28 03:23 | 29.01500 | -15.90895 | 24729 ft | 422 kts | 49° |
| 2026-04-28 03:23 | 29.03256 | -15.88240 | 25092 ft | 425 kts | 49° |
| 2026-04-28 03:23 | 29.05042 | -15.85535 | 25480 ft | 427 kts | 49° |
| 2026-04-28 03:23 | 29.06837 | -15.82812 | 25852 ft | 430 kts | 49° |
| 2026-04-28 03:24 | 29.08644 | -15.80065 | 26222 ft | 433 kts | 49° |
| 2026-04-28 03:24 | 29.10461 | -15.77299 | 26594 ft | 436 kts | 49° |
| 2026-04-28 03:24 | 29.12288 | -15.74518 | 26963 ft | 438 kts | 49° |
| 2026-04-28 03:24 | 29.14126 | -15.71715 | 27331 ft | 441 kts | 49° |
| 2026-04-28 03:25 | 29.15969 | -15.68897 | 27689 ft | 444 kts | 49° |
| 2026-04-28 03:25 | 29.17824 | -15.66060 | 28029 ft | 447 kts | 49° |
| 2026-04-28 03:25 | 29.19691 | -15.63205 | 28439 ft | 449 kts | 49° |
| 2026-04-28 03:25 | 29.21564 | -15.60339 | 28797 ft | 451 kts | 49° |
| 2026-04-28 03:26 | 29.23422 | -15.57496 | 29150 ft | 454 kts | 48° |
| 2026-04-28 03:26 | 29.25318 | -15.54595 | 29518 ft | 456 kts | 48° |
| 2026-04-28 03:26 | 29.27223 | -15.51677 | 29877 ft | 459 kts | 48° |
| 2026-04-28 03:26 | 29.29139 | -15.48740 | 30213 ft | 462 kts | 48° |
| 2026-04-28 03:27 | 29.31062 | -15.45787 | 30509 ft | 464 kts | 48° |
| 2026-04-28 03:27 | 29.33006 | -15.42804 | 30801 ft | 467 kts | 48° |
| 2026-04-28 03:27 | 29.34959 | -15.39806 | 31092 ft | 469 kts | 48° |
| 2026-04-28 03:27 | 29.36916 | -15.36803 | 31385 ft | 471 kts | 48° |
| 2026-04-28 03:28 | 29.38873 | -15.33792 | 31797 ft | 471 kts | 49° |
| 2026-04-28 03:28 | 29.40825 | -15.30783 | 32213 ft | 470 kts | 49° |
| 2026-04-28 03:28 | 29.42775 | -15.27773 | 32619 ft | 470 kts | 49° |
| 2026-04-28 03:28 | 29.44720 | -15.24770 | 33028 ft | 469 kts | 49° |
| 2026-04-28 03:29 | 29.46674 | -15.21755 | 33433 ft | 469 kts | 49° |
| 2026-04-28 03:29 | 29.48620 | -15.18747 | 33848 ft | 469 kts | 49° |
| 2026-04-28 03:29 | 29.50568 | -15.15737 | 34221 ft | 469 kts | 49° |
| 2026-04-28 03:29 | 29.52489 | -15.12768 | 34583 ft | 468 kts | 49° |
| 2026-04-28 03:30 | 29.54424 | -15.09776 | 34997 ft | 465 kts | 49° |
| 2026-04-28 03:30 | 29.56347 | -15.06799 | 35386 ft | 463 kts | 49° |
| 2026-04-28 03:30 | 29.58264 | -15.03829 | 35731 ft | 462 kts | 49° |
| 2026-04-28 03:30 | 29.60180 | -15.00858 | 35999 ft | 463 kts | 49° |
| 2026-04-28 03:31 | 29.64028 | -14.94890 | 36069 ft | 469 kts | 49° |
| 2026-04-28 03:31 | 29.67961 | -14.88790 | 36062 ft | 478 kts | 49° |
| 2026-04-28 03:32 | 29.71918 | -14.82619 | 36062 ft | 480 kts | 49° |
| 2026-04-28 03:32 | 29.75875 | -14.76434 | 36062 ft | 480 kts | 49° |
| 2026-04-28 03:33 | 29.79835 | -14.70252 | 36065 ft | 480 kts | 49° |
| 2026-04-28 03:33 | 29.83771 | -14.64101 | 36065 ft | 480 kts | 49° |
| 2026-04-28 03:34 | 29.87732 | -14.57902 | 36068 ft | 480 kts | 49° |
| 2026-04-28 03:34 | 29.91690 | -14.51690 | 36078 ft | 481 kts | 49° |
| 2026-04-28 03:35 | 29.95648 | -14.45463 | 36071 ft | 481 kts | 49° |
| 2026-04-28 03:35 | 29.99600 | -14.39230 | 36068 ft | 481 kts | 49° |
| 2026-04-28 03:36 | 30.03556 | -14.32996 | 36064 ft | 481 kts | 49° |
| 2026-04-28 03:36 | 30.07482 | -14.26785 | 36064 ft | 481 kts | 49° |
| 2026-04-28 03:37 | 30.11477 | -14.20578 | 36074 ft | 477 kts | 42° |
| 2026-04-28 03:37 | 30.16443 | -14.15633 | 36059 ft | 471 kts | 34° |
| 2026-04-28 03:38 | 30.21530 | -14.10865 | 36079 ft | 471 kts | 34° |
| 2026-04-28 03:38 | 30.26618 | -14.06095 | 36071 ft | 471 kts | 34° |
| 2026-04-28 03:39 | 30.31704 | -14.01313 | 36063 ft | 470 kts | 34° |
| 2026-04-28 03:39 | 30.36746 | -13.96554 | 36059 ft | 470 kts | 34° |
| 2026-04-28 03:40 | 30.41821 | -13.91762 | 36060 ft | 470 kts | 34° |
| 2026-04-28 03:40 | 30.46892 | -13.86973 | 36058 ft | 470 kts | 34° |
| 2026-04-28 03:41 | 30.51964 | -13.82176 | 36088 ft | 470 kts | 34° |
| 2026-04-28 03:41 | 30.57035 | -13.77375 | 36062 ft | 470 kts | 34° |
| 2026-04-28 03:42 | 30.62099 | -13.72572 | 36055 ft | 470 kts | 34° |
| 2026-04-28 03:42 | 30.67156 | -13.67742 | 36052 ft | 470 kts | 34° |
| 2026-04-28 03:43 | 30.72187 | -13.62886 | 36040 ft | 470 kts | 34° |
| 2026-04-28 03:43 | 30.77219 | -13.58020 | 36037 ft | 470 kts | 34° |
| 2026-04-28 03:44 | 30.82220 | -13.53186 | 36064 ft | 470 kts | 34° |
| 2026-04-28 03:44 | 30.87251 | -13.48329 | 36063 ft | 470 kts | 34° |
| 2026-04-28 03:45 | 30.92290 | -13.43461 | 36042 ft | 470 kts | 34° |
| 2026-04-28 03:45 | 30.97324 | -13.38576 | 36033 ft | 471 kts | 34° |
| 2026-04-28 03:46 | 31.02360 | -13.33667 | 36026 ft | 471 kts | 35° |
| 2026-04-28 03:46 | 31.07395 | -13.28738 | 36022 ft | 472 kts | 35° |
| 2026-04-28 03:47 | 31.12395 | -13.23862 | 36049 ft | 472 kts | 35° |
| 2026-04-28 03:47 | 31.17427 | -13.18940 | 36042 ft | 471 kts | 35° |
| 2026-04-28 03:48 | 31.22442 | -13.14023 | 36037 ft | 471 kts | 35° |
| 2026-04-28 03:48 | 31.27458 | -13.09105 | 36053 ft | 471 kts | 36° |
| 2026-04-28 03:49 | 31.32470 | -13.04178 | 36030 ft | 471 kts | 36° |
| 2026-04-28 03:49 | 31.37476 | -12.99244 | 36020 ft | 471 kts | 36° |
| 2026-04-28 03:50 | 31.42492 | -12.94296 | 36038 ft | 471 kts | 36° |
| 2026-04-28 03:50 | 31.47493 | -12.89352 | 36028 ft | 470 kts | 36° |
| 2026-04-28 03:51 | 31.52493 | -12.84405 | 36024 ft | 470 kts | 36° |
| 2026-04-28 03:51 | 31.57460 | -12.79493 | 36022 ft | 470 kts | 36° |
| 2026-04-28 03:52 | 31.62458 | -12.74553 | 36027 ft | 470 kts | 37° |
| 2026-04-28 03:52 | 31.67452 | -12.69592 | 36022 ft | 470 kts | 37° |
| 2026-04-28 03:53 | 31.72436 | -12.64632 | 36036 ft | 469 kts | 37° |
| 2026-04-28 03:53 | 31.77415 | -12.59670 | 36019 ft | 469 kts | 37° |
| 2026-04-28 03:54 | 31.82388 | -12.54707 | 36018 ft | 469 kts | 37° |
| 2026-04-28 03:54 | 31.87357 | -12.49741 | 36017 ft | 468 kts | 37° |
| 2026-04-28 03:55 | 31.92324 | -12.44777 | 36008 ft | 468 kts | 37° |
| 2026-04-28 03:55 | 31.97278 | -12.39860 | 36016 ft | 467 kts | 34° |
| 2026-04-28 03:56 | 32.02612 | -12.35483 | 36017 ft | 467 kts | 32° |
| 2026-04-28 03:56 | 32.07961 | -12.31144 | 36011 ft | 467 kts | 32° |
| 2026-04-28 03:57 | 32.13302 | -12.26791 | 36007 ft | 467 kts | 32° |
| 2026-04-28 03:57 | 32.18643 | -12.22427 | 36005 ft | 467 kts | 32° |
| 2026-04-28 03:58 | 32.23984 | -12.18058 | 36002 ft | 467 kts | 32° |
| 2026-04-28 03:58 | 32.29321 | -12.13695 | 36001 ft | 467 kts | 32° |
| 2026-04-28 03:59 | 32.34653 | -12.09314 | 36013 ft | 466 kts | 32° |
| 2026-04-28 03:59 | 32.39977 | -12.04939 | 36007 ft | 465 kts | 32° |
| 2026-04-28 04:00 | 32.45294 | -12.00562 | 35992 ft | 466 kts | 32° |
| 2026-04-28 04:00 | 32.50615 | -11.96185 | 35989 ft | 466 kts | 32° |
| 2026-04-28 04:01 | 32.55941 | -11.91798 | 35985 ft | 466 kts | 32° |
| 2026-04-28 04:01 | 32.61242 | -11.87425 | 35997 ft | 467 kts | 33° |
| 2026-04-28 04:02 | 32.66567 | -11.83014 | 35997 ft | 466 kts | 33° |
| 2026-04-28 04:02 | 32.71883 | -11.78589 | 35996 ft | 466 kts | 33° |
| 2026-04-28 04:03 | 32.77204 | -11.74169 | 35986 ft | 466 kts | 33° |
| 2026-04-28 04:03 | 32.82526 | -11.69754 | 35986 ft | 466 kts | 33° |
| 2026-04-28 04:04 | 32.87841 | -11.65335 | 35988 ft | 466 kts | 33° |
| 2026-04-28 04:04 | 32.93155 | -11.60904 | 35987 ft | 466 kts | 33° |
| 2026-04-28 04:05 | 32.97573 | -11.57224 | 35983 ft | 466 kts | 33° |
| 2026-04-28 04:05 | 33.03743 | -11.52064 | 35983 ft | 466 kts | 33° |
| 2026-04-28 04:06 | 33.08195 | -11.48342 | 35981 ft | 466 kts | 33° |
| 2026-04-28 04:06 | 33.13509 | -11.43893 | 35981 ft | 466 kts | 33° |
| 2026-04-28 04:07 | 33.18773 | -11.39461 | 35991 ft | 466 kts | 33° |
| 2026-04-28 04:07 | 33.24059 | -11.34979 | 35988 ft | 466 kts | 34° |
| 2026-04-28 04:08 | 33.29338 | -11.30486 | 35979 ft | 466 kts | 34° |
| 2026-04-28 04:08 | 33.34630 | -11.25986 | 35964 ft | 467 kts | 34° |
| 2026-04-28 04:09 | 33.39932 | -11.21487 | 35960 ft | 467 kts | 34° |
| 2026-04-28 04:09 | 33.45237 | -11.16975 | 35965 ft | 468 kts | 34° |
| 2026-04-28 04:10 | 33.50536 | -11.12450 | 35960 ft | 468 kts | 34° |
| 2026-04-28 04:10 | 33.55831 | -11.07911 | 35962 ft | 468 kts | 34° |
| 2026-04-28 04:11 | 33.61093 | -11.03386 | 35967 ft | 468 kts | 34° |
| 2026-04-28 04:11 | 33.66404 | -10.98835 | 35958 ft | 469 kts | 34° |
| 2026-04-28 04:12 | 33.71719 | -10.94298 | 35960 ft | 469 kts | 34° |
| 2026-04-28 04:12 | 33.77030 | -10.89730 | 35963 ft | 469 kts | 35° |
| 2026-04-28 04:13 | 33.82305 | -10.85178 | 35958 ft | 470 kts | 35° |
| 2026-04-28 04:13 | 33.87620 | -10.80590 | 35960 ft | 470 kts | 35° |
| 2026-04-28 04:14 | 33.92932 | -10.76005 | 35960 ft | 470 kts | 35° |
| 2026-04-28 04:14 | 33.98248 | -10.71400 | 35960 ft | 471 kts | 35° |
| 2026-04-28 04:15 | 34.03571 | -10.66786 | 35964 ft | 471 kts | 35° |
| 2026-04-28 04:16 | 34.11545 | -10.59872 | 35962 ft | 470 kts | 35° |
| 2026-04-28 04:16 | 34.16823 | -10.55272 | 35953 ft | 470 kts | 35° |
| 2026-04-28 04:17 | 34.22133 | -10.50645 | 35955 ft | 470 kts | 35° |
| 2026-04-28 04:17 | 34.27434 | -10.46022 | 35954 ft | 470 kts | 35° |
| 2026-04-28 04:18 | 34.32730 | -10.41391 | 35955 ft | 469 kts | 35° |
| 2026-04-28 04:18 | 34.38022 | -10.36749 | 35952 ft | 469 kts | 35° |
| 2026-04-28 04:19 | 34.43308 | -10.32116 | 35948 ft | 469 kts | 35° |
| 2026-04-28 04:19 | 34.48596 | -10.27470 | 35943 ft | 469 kts | 35° |
| 2026-04-28 04:20 | 34.53841 | -10.22857 | 35939 ft | 469 kts | 35° |
| 2026-04-28 04:20 | 34.59121 | -10.18202 | 35931 ft | 469 kts | 36° |
| 2026-04-28 04:21 | 34.64400 | -10.13546 | 35936 ft | 469 kts | 35° |
| 2026-04-28 04:21 | 34.69689 | -10.08905 | 35932 ft | 469 kts | 35° |
| 2026-04-28 04:22 | 34.74971 | -10.04241 | 35933 ft | 469 kts | 36° |
| 2026-04-28 04:22 | 34.79874 | -9.99916 | 35934 ft | 469 kts | 35° |
| 2026-04-28 04:23 | 34.85168 | -9.95257 | 35936 ft | 470 kts | 36° |
| 2026-04-28 04:23 | 34.90460 | -9.90577 | 35932 ft | 470 kts | 36° |
| 2026-04-28 04:24 | 34.95713 | -9.85928 | 35930 ft | 470 kts | 36° |
| 2026-04-28 04:24 | 35.01000 | -9.81237 | 35918 ft | 470 kts | 36° |
| 2026-04-28 04:25 | 35.06297 | -9.76531 | 35919 ft | 470 kts | 36° |
| 2026-04-28 04:25 | 35.11591 | -9.71815 | 35925 ft | 470 kts | 36° |
| 2026-04-28 04:26 | 35.16854 | -9.67125 | 35920 ft | 470 kts | 36° |
| 2026-04-28 04:26 | 35.22139 | -9.62405 | 35917 ft | 470 kts | 36° |
| 2026-04-28 04:27 | 35.27427 | -9.57685 | 35912 ft | 470 kts | 36° |
| 2026-04-28 04:27 | 35.32712 | -9.52944 | 35911 ft | 471 kts | 36° |
| 2026-04-28 04:28 | 35.37997 | -9.48204 | 35914 ft | 471 kts | 36° |
| 2026-04-28 04:28 | 35.43277 | -9.43450 | 35913 ft | 471 kts | 36° |
| 2026-04-28 04:29 | 35.48563 | -9.38686 | 35903 ft | 471 kts | 36° |
| 2026-04-28 04:29 | 35.53808 | -9.33950 | 35901 ft | 471 kts | 36° |
| 2026-04-28 04:30 | 35.59094 | -9.29184 | 35899 ft | 471 kts | 36° |
| 2026-04-28 04:30 | 35.64374 | -9.24412 | 35907 ft | 471 kts | 36° |
| 2026-04-28 04:31 | 35.69655 | -9.19630 | 35907 ft | 471 kts | 36° |
| 2026-04-28 04:31 | 35.74933 | -9.14829 | 35909 ft | 471 kts | 36° |
| 2026-04-28 04:32 | 35.80213 | -9.10020 | 35908 ft | 472 kts | 36° |
| 2026-04-28 04:32 | 35.85488 | -9.05209 | 35905 ft | 472 kts | 36° |
| 2026-04-28 04:33 | 35.90738 | -9.00417 | 35908 ft | 472 kts | 36° |
| 2026-04-28 04:33 | 35.95985 | -8.95528 | 35889 ft | 473 kts | 41° |
| 2026-04-28 04:34 | 36.00451 | -8.89586 | 35887 ft | 473 kts | 50° |
| 2026-04-28 04:34 | 36.04743 | -8.83416 | 35891 ft | 474 kts | 50° |
| 2026-04-28 04:35 | 36.09050 | -8.77242 | 35891 ft | 474 kts | 50° |
| 2026-04-28 04:35 | 36.13352 | -8.71062 | 35893 ft | 474 kts | 50° |
| 2026-04-28 04:36 | 36.17650 | -8.64860 | 35901 ft | 475 kts | 50° |
| 2026-04-28 04:36 | 36.21926 | -8.58683 | 35902 ft | 475 kts | 50° |
| 2026-04-28 04:37 | 36.26226 | -8.52465 | 35905 ft | 475 kts | 50° |
| 2026-04-28 04:37 | 36.30527 | -8.46236 | 35905 ft | 475 kts | 50° |
| 2026-04-28 04:38 | 36.34823 | -8.40000 | 35905 ft | 475 kts | 50° |
| 2026-04-28 04:38 | 36.39109 | -8.33753 | 35892 ft | 475 kts | 50° |
| 2026-04-28 04:39 | 36.43380 | -8.27523 | 35661 ft | 467 kts | 50° |
| 2026-04-28 04:39 | 36.45468 | -8.24474 | 35395 ft | 460 kts | 50° |
| 2026-04-28 04:39 | 36.47533 | -8.21455 | 34914 ft | 457 kts | 50° |
| 2026-04-28 04:39 | 36.49586 | -8.18451 | 34419 ft | 456 kts | 50° |
| 2026-04-28 04:40 | 36.51637 | -8.15446 | 33921 ft | 455 kts | 50° |
| 2026-04-28 04:40 | 36.53678 | -8.12456 | 33376 ft | 453 kts | 50° |
| 2026-04-28 04:40 | 36.55713 | -8.09474 | 32888 ft | 450 kts | 50° |
| 2026-04-28 04:40 | 36.57701 | -8.06554 | 32384 ft | 446 kts | 50° |
| 2026-04-28 04:41 | 36.59698 | -8.03614 | 31888 ft | 443 kts | 50° |
| 2026-04-28 04:41 | 36.61681 | -8.00691 | 31401 ft | 439 kts | 50° |
| 2026-04-28 04:41 | 36.63653 | -7.97784 | 30921 ft | 436 kts | 50° |
| 2026-04-28 04:41 | 36.65602 | -7.94915 | 30443 ft | 432 kts | 50° |
| 2026-04-28 04:42 | 36.67539 | -7.92063 | 30015 ft | 428 kts | 50° |
| 2026-04-28 04:42 | 36.69433 | -7.89271 | 29899 ft | 416 kts | 50° |
| 2026-04-28 04:42 | 36.71296 | -7.86520 | 29797 ft | 417 kts | 50° |
| 2026-04-28 04:43 | 36.75020 | -7.81020 | 29588 ft | 418 kts | 50° |
| 2026-04-28 04:43 | 36.76893 | -7.78247 | 29472 ft | 417 kts | 50° |
| 2026-04-28 04:43 | 36.78762 | -7.75475 | 29388 ft | 417 kts | 50° |
| 2026-04-28 04:43 | 36.80624 | -7.72710 | 29278 ft | 416 kts | 50° |
| 2026-04-28 04:44 | 36.82489 | -7.69938 | 29131 ft | 416 kts | 51° |
| 2026-04-28 04:44 | 36.84352 | -7.67166 | 28594 ft | 415 kts | 51° |
| 2026-04-28 04:44 | 36.86207 | -7.64406 | 28053 ft | 414 kts | 51° |
| 2026-04-28 04:44 | 36.88051 | -7.61660 | 27518 ft | 412 kts | 51° |
| 2026-04-28 04:45 | 36.89891 | -7.58920 | 26984 ft | 411 kts | 51° |
| 2026-04-28 04:45 | 36.91725 | -7.56187 | 26449 ft | 409 kts | 51° |
| 2026-04-28 04:45 | 36.93554 | -7.53460 | 25928 ft | 408 kts | 51° |
| 2026-04-28 04:45 | 36.95376 | -7.50738 | 25408 ft | 407 kts | 51° |
| 2026-04-28 04:46 | 36.97191 | -7.48023 | 24910 ft | 407 kts | 51° |
| 2026-04-28 04:46 | 36.98982 | -7.45347 | 24412 ft | 406 kts | 50° |
| 2026-04-28 04:46 | 37.00791 | -7.42644 | 23935 ft | 405 kts | 51° |
| 2026-04-28 04:46 | 37.02601 | -7.39935 | 23448 ft | 404 kts | 51° |
| 2026-04-28 04:47 | 37.04402 | -7.37234 | 22938 ft | 401 kts | 51° |
| 2026-04-28 04:47 | 37.06188 | -7.34574 | 22495 ft | 397 kts | 50° |
| 2026-04-28 04:47 | 37.07965 | -7.31944 | 22028 ft | 393 kts | 50° |
| 2026-04-28 04:47 | 37.09726 | -7.29334 | 21567 ft | 390 kts | 50° |
| 2026-04-28 04:48 | 37.11441 | -7.26784 | 21102 ft | 386 kts | 50° |
| 2026-04-28 04:48 | 37.13169 | -7.24216 | 20636 ft | 383 kts | 50° |
| 2026-04-28 04:48 | 37.14866 | -7.21656 | 20151 ft | 380 kts | 54° |
| 2026-04-28 04:48 | 37.16248 | -7.18855 | 19682 ft | 376 kts | 65° |
| 2026-04-28 04:49 | 37.17185 | -7.15805 | 19185 ft | 373 kts | 76° |
| 2026-04-28 04:49 | 37.17786 | -7.12652 | 18693 ft | 371 kts | 78° |
| 2026-04-28 04:49 | 37.18374 | -7.09502 | 18196 ft | 370 kts | 78° |
| 2026-04-28 04:49 | 37.18966 | -7.06359 | 17652 ft | 369 kts | 78° |
| 2026-04-28 04:50 | 37.19608 | -7.03234 | 16930 ft | 372 kts | 75° |
| 2026-04-28 04:50 | 37.20344 | -7.00127 | 16409 ft | 370 kts | 73° |
| 2026-04-28 04:50 | 37.21113 | -6.97096 | 15900 ft | 368 kts | 73° |
| 2026-04-28 04:50 | 37.21905 | -6.94050 | 15391 ft | 366 kts | 73° |
| 2026-04-28 04:51 | 37.22687 | -6.91022 | 14881 ft | 365 kts | 73° |
| 2026-04-28 04:51 | 37.23457 | -6.87989 | 14358 ft | 363 kts | 73° |
| 2026-04-28 04:51 | 37.24210 | -6.84964 | 13854 ft | 363 kts | 73° |
| 2026-04-28 04:51 | 37.24953 | -6.81942 | 13297 ft | 362 kts | 74° |
| 2026-04-28 04:52 | 37.25689 | -6.78931 | 12783 ft | 359 kts | 74° |
| 2026-04-28 04:52 | 37.26420 | -6.75932 | 12273 ft | 357 kts | 74° |
| 2026-04-28 04:52 | 37.27141 | -6.72959 | 11778 ft | 355 kts | 74° |
| 2026-04-28 04:52 | 37.27845 | -6.70042 | 11291 ft | 352 kts | 74° |
| 2026-04-28 04:53 | 37.28551 | -6.67100 | 10803 ft | 350 kts | 74° |
| 2026-04-28 04:53 | 37.29250 | -6.64176 | 10334 ft | 348 kts | 74° |
| 2026-04-28 04:53 | 37.29938 | -6.61307 | 10179 ft | 336 kts | 73° |
| 2026-04-28 04:53 | 37.30603 | -6.58546 | 10058 ft | 324 kts | 73° |
| 2026-04-28 04:54 | 37.31245 | -6.55880 | 9947 ft | 313 kts | 73° |
| 2026-04-28 04:54 | 37.31870 | -6.53296 | 9776 ft | 305 kts | 73° |
| 2026-04-28 04:54 | 37.32481 | -6.50770 | 9324 ft | 300 kts | 74° |
| 2026-04-28 04:54 | 37.33082 | -6.48268 | 8711 ft | 298 kts | 75° |
| 2026-04-28 04:55 | 37.33675 | -6.45788 | 8140 ft | 294 kts | 75° |
| 2026-04-28 04:55 | 37.34261 | -6.43335 | 7572 ft | 291 kts | 76° |
| 2026-04-28 04:55 | 37.34836 | -6.40919 | 7058 ft | 286 kts | 76° |
| 2026-04-28 04:55 | 37.35403 | -6.38539 | 6655 ft | 284 kts | 77° |
| 2026-04-28 04:56 | 37.35779 | -6.36956 | 6352 ft | 286 kts | 77° |
| 2026-04-28 04:56 | 37.36343 | -6.34586 | 5860 ft | 282 kts | 76° |
| 2026-04-28 04:56 | 37.36904 | -6.32230 | 5480 ft | 280 kts | 76° |
| 2026-04-28 04:56 | 37.37636 | -6.29152 | 4938 ft | 275 kts | 75° |
| 2026-04-28 04:57 | 37.38004 | -6.27601 | 4522 ft | 274 kts | 75° |
| 2026-04-28 04:57 | 37.38721 | -6.24580 | 3780 ft | 270 kts | 74° |
| 2026-04-28 04:57 | 37.39083 | -6.23055 | 3462 ft | 270 kts | 74° |
| 2026-04-28 04:57 | 37.39599 | -6.20870 | 3313 ft | 256 kts | 74° |
| 2026-04-28 04:58 | 37.40093 | -6.18776 | 3241 ft | 244 kts | 73° |
| 2026-04-28 04:58 | 37.40567 | -6.16775 | 3148 ft | 233 kts | 73° |
| 2026-04-28 04:58 | 37.41019 | -6.14862 | 3047 ft | 223 kts | 73° |
| 2026-04-28 04:58 | 37.41451 | -6.13027 | 2937 ft | 213 kts | 73° |
| 2026-04-28 04:59 | 37.41677 | -6.11232 | 2861 ft | 205 kts | 87° |
| 2026-04-28 04:59 | 37.41705 | -6.09512 | 2805 ft | 188 kts | 90° |
| 2026-04-28 04:59 | 37.41713 | -6.07900 | 2628 ft | 180 kts | 89° |
| 2026-04-28 04:59 | 37.41720 | -6.06348 | 2414 ft | 174 kts | 89° |
| 2026-04-28 05:00 | 37.41727 | -6.04863 | 2194 ft | 165 kts | 89° |
| 2026-04-28 05:00 | 37.41734 | -6.03473 | 1986 ft | 154 kts | 89° |
| 2026-04-28 05:00 | 37.41740 | -6.02152 | 1789 ft | 149 kts | 89° |
| 2026-04-28 05:00 | 37.41746 | -6.00863 | 1596 ft | 146 kts | 89° |
| 2026-04-28 05:01 | 37.41752 | -5.99593 | 1404 ft | 145 kts | 88° |
| 2026-04-28 05:01 | 37.41758 | -5.98329 | 1211 ft | 144 kts | 89° |
| 2026-04-28 05:01 | 37.41762 | -5.97085 | 1012 ft | 144 kts | 89° |
| 2026-04-28 05:01 | 37.41768 | -5.95830 | 821 ft | 143 kts | 89° |
| 2026-04-28 05:02 | 37.41772 | -5.94585 | 645 ft | 142 kts | 89° |
| 2026-04-28 05:02 | 37.41775 | -5.93347 | 454 ft | 141 kts | 89° |
| 2026-04-28 05:02 | 37.41783 | -5.92116 | 262 ft | 140 kts | 89° |
| 2026-04-28 05:02 | 37.41789 | -5.90894 | 102 ft | 137 kts | 89° |
| 2026-04-28 05:03 | 37.41793 | -5.89859 | 99 ft | 95 kts | 90° |
| 2026-04-28 05:03 | 37.41795 | -5.89271 | 100 ft | 47 kts | 90° |
| 2026-04-28 05:03 | 37.41796 | -5.88908 | 104 ft | 23 kts | 90° |
| 2026-04-28 05:03 | 37.41803 | -5.88800 | 104 ft | 9 kts | 60° |
| 2026-04-28 05:04 | 37.41868 | -5.88770 | 104 ft | 12 kts | 11° |
| 2026-04-28 05:04 | 37.41938 | -5.88754 | 103 ft | 9 kts | 10° |
| 2026-04-28 05:04 | 37.41982 | -5.88771 | 103 ft | 8 kts | 304° |
| 2026-04-28 05:04 | 37.41985 | -5.88850 | 102 ft | 8 kts | 270° |
| 2026-04-28 05:05 | 37.41984 | -5.88937 | 102 ft | 12 kts | 269° |
| 2026-04-28 05:05 | 37.41984 | -5.89053 | 101 ft | 15 kts | 270° |
| 2026-04-28 05:05 | 37.41984 | -5.89157 | 100 ft | 8 kts | 270° |
| 2026-04-28 05:05 | 37.41984 | -5.89228 | 100 ft | 9 kts | 269° |
| 2026-04-28 05:06 | 37.41983 | -5.89312 | 99 ft | 10 kts | 269° |
| 2026-04-28 05:06 | 37.42007 | -5.89389 | 99 ft | 9 kts | 312° |
| 2026-04-28 05:06 | 37.42058 | -5.89453 | 98 ft | 11 kts | 314° |
| 2026-04-28 05:06 | 37.42117 | -5.89529 | 97 ft | 13 kts | 313° |
| 2026-04-28 05:07 | 37.42188 | -5.89621 | 95 ft | 16 kts | 314° |
| 2026-04-28 05:07 | 37.42241 | -5.89689 | 94 ft | 8 kts | 314° |
| 2026-04-28 05:07 | 37.42265 | -5.89739 | 94 ft | 6 kts | 271° |
| 2026-04-28 05:07 | 37.42240 | -5.89788 | 96 ft | 7 kts | 225° |
| 2026-04-28 05:08 | 37.42206 | -5.89831 | 94 ft | 6 kts | 225° |
| 2026-04-28 05:08 | 37.42174 | -5.89872 | 94 ft | 7 kts | 228° |
| 2026-04-28 05:08 | 37.42192 | -5.89920 | 94 ft | 7 kts | 315° |
| 2026-04-28 05:08 | 37.42212 | -5.89945 | 94 ft | 1 kts | 314° |
| 2026-04-28 05:09 | 37.42217 | -5.89951 | 94 ft | 0 kts | 314° |